createdAt,value
2018-07-24T00:00:08.392Z,83.98
2018-07-24T00:01:08.536Z,84.17
2018-07-24T00:02:08.361Z,84.75
2018-07-24T00:03:08.448Z,84.46
2018-07-24T00:04:08.320Z,84.65
2018-07-24T00:05:08.461Z,84.75
2018-07-24T00:06:08.285Z,84.36
2018-07-24T00:07:08.404Z,84.17
2018-07-24T00:08:08.250Z,84.94
2018-07-24T00:09:08.386Z,85.03
2018-07-24T00:10:08.211Z,85.42
2018-07-24T00:11:08.298Z,85.03
2018-07-24T00:12:08.170Z,85.61
2018-07-24T00:13:08.311Z,84.94
2018-07-24T00:14:08.136Z,84.70
2018-07-24T00:15:08.226Z,85.19
2018-07-24T00:16:08.100Z,85.61
2018-07-24T00:17:08.237Z,85.67
2018-07-24T00:18:08.063Z,85.67
2018-07-24T00:19:08.252Z,85.57
2018-07-24T00:20:08.026Z,85.67
2018-07-24T00:21:08.164Z,85.38
2018-07-24T00:22:07.988Z,85.57
2018-07-24T00:23:08.180Z,85.57
2018-07-24T00:24:07.955Z,85.38
2018-07-24T00:25:08.093Z,85.57
2018-07-24T00:26:07.917Z,85.38
2018-07-24T00:27:08.104Z,85.67
2018-07-24T00:28:07.877Z,85.19
2018-07-24T00:29:08.013Z,85.19
2018-07-24T00:30:07.841Z,85.77
2018-07-24T00:31:08.030Z,86.25
2018-07-24T00:32:07.844Z,86.15
2018-07-24T00:33:07.940Z,86.25
2018-07-24T00:34:07.766Z,86.25
2018-07-24T00:35:07.956Z,86.63
2018-07-24T00:36:07.732Z,85.57
2018-07-24T00:37:07.764Z,86.15
2018-07-24T00:38:07.693Z,86.15
2018-07-24T00:39:07.780Z,86.54
2018-07-24T00:40:07.652Z,86.44
2018-07-24T00:41:07.689Z,85.96
2018-07-24T00:42:07.616Z,86.49
2018-07-24T00:43:07.706Z,86.05
2018-07-24T00:44:07.579Z,86.35
2018-07-24T00:45:07.617Z,86.54
2018-07-24T00:46:07.541Z,86.05
2018-07-24T00:47:07.631Z,86.40
2018-07-24T00:48:07.503Z,86.82
2018-07-24T00:49:07.543Z,87.50
2018-07-24T00:50:07.467Z,88.37
2018-07-24T00:51:07.556Z,87.70
2018-07-24T00:52:07.429Z,87.84
2018-07-24T00:53:07.469Z,87.70
2018-07-24T00:54:07.420Z,87.50
2018-07-24T00:55:07.485Z,87.12
2018-07-24T00:56:07.352Z,86.35
2018-07-24T00:57:07.396Z,86.63
2018-07-24T00:58:07.317Z,86.30
2018-07-24T00:59:07.411Z,86.69
2018-07-24T01:00:07.277Z,86.78
2018-07-24T01:01:07.320Z,86.40
2018-07-24T01:02:07.241Z,86.21
2018-07-24T01:03:07.335Z,86.30
2018-07-24T01:04:07.204Z,86.59
2018-07-24T01:05:07.247Z,87.26
2018-07-24T01:06:07.166Z,86.98
2018-07-24T01:07:07.262Z,87.46
2018-07-24T01:08:07.126Z,86.98
2018-07-24T01:09:07.173Z,87.46
2018-07-24T01:10:07.089Z,87.55
2018-07-24T01:11:07.187Z,87.99
2018-07-24T01:12:07.050Z,87.94
2018-07-24T01:13:07.099Z,88.13
2018-07-24T01:14:07.016Z,87.99
2018-07-24T01:15:07.113Z,88.18
2018-07-24T01:16:06.979Z,88.57
2018-07-24T01:17:07.028Z,89.05
2018-07-24T01:18:06.940Z,88.47
2018-07-24T01:19:07.039Z,88.09
2018-07-24T01:20:06.905Z,87.90
2018-07-24T01:21:06.953Z,88.57
2018-07-24T01:22:06.862Z,88.28
2018-07-24T01:23:06.968Z,87.60
2018-07-24T01:24:06.823Z,88.09
2018-07-24T01:25:06.886Z,88.18
2018-07-24T01:26:06.785Z,88.18
2018-07-24T01:27:06.889Z,88.67
2018-07-24T01:28:06.752Z,89.05
2018-07-24T01:29:06.801Z,89.05
2018-07-24T01:30:06.702Z,88.57
2018-07-24T01:31:06.815Z,88.67
2018-07-24T01:32:06.675Z,88.67
2018-07-24T01:33:06.726Z,89.15
2018-07-24T01:34:06.626Z,88.95
2018-07-24T01:35:06.741Z,88.57
2018-07-24T01:36:06.603Z,89.24
2018-07-24T01:37:06.648Z,88.95
2018-07-24T01:38:06.552Z,89.34
2018-07-24T01:39:06.666Z,89.05
2018-07-24T01:40:06.531Z,88.67
2018-07-24T01:41:06.525Z,88.28
2018-07-24T01:42:06.476Z,88.47
2018-07-24T01:43:06.592Z,88.67
2018-07-24T01:44:06.451Z,88.85
2018-07-24T01:45:06.505Z,89.43
2018-07-24T01:46:06.403Z,88.57
2018-07-24T01:47:06.520Z,89.15
2018-07-24T01:48:06.372Z,89.15
2018-07-24T01:49:06.432Z,89.29
2018-07-24T01:50:06.325Z,89.97
2018-07-24T01:51:06.444Z,89.49
2018-07-24T01:52:06.304Z,89.34
2018-07-24T01:53:06.459Z,89.63
2018-07-24T01:54:06.250Z,89.68
2018-07-24T01:55:06.370Z,90.45
2018-07-24T01:56:06.215Z,90.11
2018-07-24T01:57:06.283Z,90.59
2018-07-24T01:58:06.173Z,89.78
2018-07-24T01:59:06.296Z,89.87
2018-07-24T02:00:06.141Z,89.49
2018-07-24T02:01:06.207Z,89.87
2018-07-24T02:02:06.099Z,89.78
2018-07-24T02:03:06.233Z,89.68
2018-07-24T02:04:06.064Z,89.68
2018-07-24T02:05:06.136Z,90.26
2018-07-24T02:06:06.023Z,89.87
2018-07-24T02:07:06.157Z,89.78
2018-07-24T02:08:05.978Z,89.78
2018-07-24T02:09:06.068Z,90.26
2018-07-24T02:10:05.939Z,90.35
2018-07-24T02:11:06.081Z,89.87
2018-07-24T02:12:05.898Z,90.26
2018-07-24T02:13:05.997Z,90.16
2018-07-24T02:14:05.863Z,90.26
2018-07-24T02:15:06.008Z,90.55
2018-07-24T02:16:05.830Z,90.35
2018-07-24T02:17:05.922Z,90.55
2018-07-24T02:18:05.783Z,90.35
2018-07-24T02:19:05.933Z,90.26
2018-07-24T02:20:05.747Z,90.16
2018-07-24T02:21:05.845Z,89.97
2018-07-24T02:22:05.703Z,90.26
2018-07-24T02:23:05.858Z,89.87
2018-07-24T02:24:05.664Z,89.97
2018-07-24T02:25:05.772Z,90.35
2018-07-24T02:26:05.631Z,90.73
2018-07-24T02:27:05.785Z,91.22
2018-07-24T02:28:05.589Z,90.83
2018-07-24T02:29:05.593Z,90.45
2018-07-24T02:30:05.549Z,91.41
2018-07-24T02:31:05.606Z,90.93
2018-07-24T02:32:05.513Z,91.22
2018-07-24T02:33:05.523Z,91.03
2018-07-24T02:34:05.473Z,91.51
2018-07-24T02:35:05.536Z,91.80
2018-07-24T02:36:05.442Z,91.51
2018-07-24T02:37:05.444Z,91.70
2018-07-24T02:38:05.394Z,92.08
2018-07-24T02:39:05.460Z,92.08
2018-07-24T02:40:05.353Z,92.08
2018-07-24T02:41:05.373Z,91.80
2018-07-24T02:42:05.313Z,92.13
2018-07-24T02:43:05.386Z,91.36
2018-07-24T02:44:05.274Z,91.60
2018-07-24T02:45:05.299Z,92.66
2018-07-24T02:46:05.235Z,92.28
2018-07-24T02:47:05.312Z,91.99
2018-07-24T02:48:05.195Z,92.13
2018-07-24T02:49:05.228Z,92.23
2018-07-24T02:50:05.158Z,92.08
2018-07-24T02:51:05.239Z,91.85
2018-07-24T02:52:05.114Z,92.18
2018-07-24T02:53:05.150Z,91.85
2018-07-24T02:54:05.078Z,92.57
2018-07-24T02:55:05.163Z,92.57
2018-07-24T02:56:05.037Z,92.66
2018-07-24T02:57:05.076Z,92.85
2018-07-24T02:58:04.999Z,93.24
2018-07-24T02:59:05.091Z,92.52
2018-07-24T03:00:04.953Z,92.33
2018-07-24T03:01:05.004Z,92.43
2018-07-24T03:02:04.922Z,92.61
2018-07-24T03:03:05.017Z,92.43
2018-07-24T03:04:04.878Z,93.38
2018-07-24T03:05:04.931Z,93.10
2018-07-24T03:06:04.842Z,93.58
2018-07-24T03:07:04.943Z,92.71
2018-07-24T03:08:04.799Z,93.68
2018-07-24T03:09:04.854Z,93.29
2018-07-24T03:10:04.762Z,93.10
2018-07-24T03:11:04.867Z,93.58
2018-07-24T03:12:04.720Z,93.48
2018-07-24T03:13:04.780Z,93.29
2018-07-24T03:14:04.681Z,93.00
2018-07-24T03:15:04.795Z,92.61
2018-07-24T03:16:04.692Z,93.10
2018-07-24T03:17:04.708Z,92.61
2018-07-24T03:18:04.601Z,92.52
2018-07-24T03:19:04.729Z,92.43
2018-07-24T03:20:04.561Z,92.43
2018-07-24T03:21:04.633Z,92.81
2018-07-24T03:22:04.523Z,92.91
2018-07-24T03:23:04.646Z,92.61
2018-07-24T03:24:04.486Z,92.61
2018-07-24T03:25:04.559Z,93.38
2018-07-24T03:26:04.443Z,93.10
2018-07-24T03:27:04.576Z,92.52
2018-07-24T03:28:04.405Z,93.38
2018-07-24T03:29:04.487Z,93.10
2018-07-24T03:30:04.367Z,93.29
2018-07-24T03:31:04.500Z,93.29
2018-07-24T03:32:04.322Z,93.29
2018-07-24T03:33:04.416Z,93.48
2018-07-24T03:34:04.285Z,93.58
2018-07-24T03:35:04.426Z,93.38
2018-07-24T03:36:04.244Z,93.58
2018-07-24T03:37:04.341Z,93.68
2018-07-24T03:38:04.204Z,93.38
2018-07-24T03:39:04.351Z,93.29
2018-07-24T03:40:04.165Z,93.58
2018-07-24T03:41:04.196Z,93.77
2018-07-24T03:42:04.126Z,93.96
2018-07-24T03:43:04.280Z,93.58
2018-07-24T03:44:04.083Z,93.77
2018-07-24T03:45:04.247Z,94.06
2018-07-24T03:46:04.042Z,94.25
2018-07-24T03:47:04.206Z,94.35
2018-07-24T03:48:04.012Z,93.96
2018-07-24T03:49:04.119Z,94.35
2018-07-24T03:50:03.974Z,94.15
2018-07-24T03:51:04.135Z,94.25
2018-07-24T03:52:03.933Z,94.35
2018-07-24T03:53:04.043Z,93.87
2018-07-24T03:54:03.893Z,94.15
2018-07-24T03:55:04.057Z,94.35
2018-07-24T03:56:03.845Z,94.45
2018-07-24T03:57:03.867Z,94.06
2018-07-24T03:58:03.805Z,94.25
2018-07-24T03:59:03.983Z,94.54
2018-07-24T04:00:03.772Z,94.15
2018-07-24T04:01:03.894Z,93.87
2018-07-24T04:02:03.740Z,94.25
2018-07-24T04:03:03.909Z,94.35
2018-07-24T04:04:03.684Z,93.77
2018-07-24T04:05:03.820Z,94.35
2018-07-24T04:06:03.644Z,94.45
2018-07-24T04:07:03.733Z,93.68
2018-07-24T04:08:03.609Z,93.00
2018-07-24T04:09:03.747Z,93.68
2018-07-24T04:10:03.565Z,93.68
2018-07-24T04:11:03.656Z,93.68
2018-07-24T04:12:03.517Z,94.25
2018-07-24T04:13:03.672Z,93.77
2018-07-24T04:14:03.490Z,93.58
2018-07-24T04:15:03.583Z,93.68
2018-07-24T04:16:03.444Z,94.35
2018-07-24T04:17:03.598Z,94.06
2018-07-24T04:18:03.405Z,94.35
2018-07-24T04:19:03.509Z,94.73
2018-07-24T04:20:03.358Z,94.06
2018-07-24T04:21:03.527Z,94.73
2018-07-24T04:22:03.331Z,95.12
2018-07-24T04:23:03.439Z,94.83
2018-07-24T04:24:03.281Z,95.31
2018-07-24T04:25:03.455Z,95.12
2018-07-24T04:26:03.247Z,95.31
2018-07-24T04:27:03.361Z,94.64
2018-07-24T04:28:03.203Z,94.83
2018-07-24T04:29:03.396Z,94.73
2018-07-24T04:30:03.169Z,94.73
2018-07-24T04:31:03.304Z,94.35
2018-07-24T04:32:03.128Z,94.15
2018-07-24T04:33:03.222Z,93.96
2018-07-24T04:34:03.084Z,94.35
2018-07-24T04:35:03.110Z,93.87
2018-07-24T04:36:03.041Z,94.06
2018-07-24T04:37:03.127Z,94.64
2018-07-24T04:38:03.005Z,94.54
2018-07-24T04:39:03.038Z,94.06
2018-07-24T04:40:03.024Z,93.72
2018-07-24T04:41:03.053Z,94.59
2018-07-24T04:42:02.941Z,94.78
2018-07-24T04:43:02.967Z,94.68
2018-07-24T04:44:02.885Z,94.20
2018-07-24T04:45:02.980Z,94.10
2018-07-24T04:46:02.846Z,93.82
2018-07-24T04:47:02.889Z,92.57
2018-07-24T04:48:02.807Z,92.47
2018-07-24T04:49:02.906Z,92.66
2018-07-24T04:50:02.767Z,92.85
2018-07-24T04:51:02.817Z,92.47
2018-07-24T04:52:02.734Z,92.57
2018-07-24T04:53:02.834Z,92.08
2018-07-24T04:54:02.681Z,92.03
2018-07-24T04:55:02.741Z,92.66
2018-07-24T04:56:02.645Z,92.71
2018-07-24T04:57:02.756Z,92.32
2018-07-24T04:58:02.605Z,93.48
2018-07-24T04:59:02.669Z,92.90
2018-07-24T05:00:02.577Z,92.61
2018-07-24T05:01:02.643Z,93.29
2018-07-24T05:02:02.526Z,92.52
2018-07-24T05:03:02.597Z,92.61
2018-07-24T05:04:02.488Z,92.80
2018-07-24T05:05:02.614Z,92.71
2018-07-24T05:06:02.447Z,92.90
2018-07-24T05:07:02.513Z,92.90
2018-07-24T05:08:02.406Z,92.80
2018-07-24T05:09:02.536Z,92.22
2018-07-24T05:10:02.370Z,91.84
2018-07-24T05:11:02.444Z,92.71
2018-07-24T05:12:02.329Z,93.29
2018-07-24T05:13:02.460Z,92.42
2018-07-24T05:14:02.292Z,92.03
2018-07-24T05:15:02.370Z,92.42
2018-07-24T05:16:02.252Z,91.75
2018-07-24T05:17:02.386Z,92.03
2018-07-24T05:18:02.216Z,91.36
2018-07-24T05:19:02.300Z,91.46
2018-07-24T05:20:02.172Z,91.07
2018-07-24T05:21:02.312Z,91.07
2018-07-24T05:22:02.136Z,90.83
2018-07-24T05:23:02.225Z,91.02
2018-07-24T05:24:02.090Z,90.64
2018-07-24T05:25:02.266Z,90.34
2018-07-24T05:26:02.053Z,89.58
2018-07-24T05:27:02.095Z,89.77
2018-07-24T05:28:02.017Z,89.86
2018-07-24T05:29:02.165Z,89.48
2018-07-24T05:30:01.975Z,90.16
2018-07-24T05:31:02.076Z,90.06
2018-07-24T05:32:01.935Z,89.86
2018-07-24T05:33:02.103Z,89.58
2018-07-24T05:34:01.895Z,89.58
2018-07-24T05:35:02.004Z,89.81
2018-07-24T05:36:01.855Z,89.43
2018-07-24T05:37:02.016Z,89.53
2018-07-24T05:38:01.817Z,89.14
2018-07-24T05:39:01.929Z,89.43
2018-07-24T05:40:01.779Z,89.33
2018-07-24T05:41:01.873Z,89.53
2018-07-24T05:42:01.741Z,89.91
2018-07-24T05:43:01.854Z,89.81
2018-07-24T05:44:01.700Z,89.43
2018-07-24T05:45:01.871Z,89.18
2018-07-24T05:46:01.662Z,88.89
2018-07-24T05:47:01.780Z,88.31
2018-07-24T05:48:01.624Z,87.83
2018-07-24T05:49:01.880Z,87.45
2018-07-24T05:50:01.586Z,87.06
2018-07-24T05:51:01.567Z,87.35
2018-07-24T05:52:01.628Z,87.74
2018-07-24T05:53:01.535Z,87.35
2018-07-24T05:54:01.539Z,86.68
2018-07-24T05:55:01.514Z,86.04
2018-07-24T05:56:01.471Z,86.33
2018-07-24T05:57:01.560Z,86.04
2018-07-24T05:58:01.456Z,85.46
2018-07-24T05:59:01.468Z,86.04
2018-07-24T06:00:01.390Z,85.94
2018-07-24T06:01:01.478Z,86.43
2018-07-24T06:02:01.379Z,86.24
2018-07-24T06:03:01.383Z,85.85
2018-07-24T06:04:01.312Z,86.04
2018-07-24T06:05:01.300Z,86.91
2018-07-24T06:06:01.302Z,86.24
2018-07-24T06:07:01.256Z,86.04
2018-07-24T06:08:01.315Z,86.04
2018-07-24T06:09:01.256Z,84.69
2018-07-24T06:10:01.205Z,84.83
2018-07-24T06:11:01.234Z,85.27
2018-07-24T06:12:01.162Z,84.74
2018-07-24T06:13:01.302Z,84.93
2018-07-24T06:14:01.127Z,84.93
2018-07-24T06:15:01.160Z,84.83
2018-07-24T06:16:01.087Z,85.22
2018-07-24T06:17:01.204Z,84.83
2018-07-24T06:18:01.051Z,84.35
2018-07-24T06:19:01.085Z,84.35
2018-07-24T06:20:01.013Z,84.54
2018-07-24T06:21:01.100Z,83.96
2018-07-24T06:22:00.974Z,84.06
2018-07-24T06:23:01.011Z,83.77
2018-07-24T06:24:00.933Z,83.58
2018-07-24T06:25:01.025Z,83.87
2018-07-24T06:26:00.905Z,83.81
2018-07-24T06:27:00.937Z,83.67
2018-07-24T06:28:00.863Z,83.23
2018-07-24T06:29:00.952Z,82.75
2018-07-24T06:30:00.823Z,82.07
2018-07-24T06:31:00.864Z,82.26
2018-07-24T06:32:00.789Z,82.94
2018-07-24T06:33:00.878Z,82.07
2018-07-24T06:34:00.751Z,82.46
2018-07-24T06:35:00.840Z,82.46
2018-07-24T06:36:00.713Z,82.02
2018-07-24T06:37:00.806Z,82.40
2018-07-24T06:38:00.679Z,81.53
2018-07-24T06:39:00.717Z,80.86
2018-07-24T06:40:00.636Z,80.95
2018-07-24T06:41:00.731Z,80.86
2018-07-24T06:42:00.601Z,80.66
2018-07-24T06:43:00.642Z,81.15
2018-07-24T06:44:00.565Z,80.57
2018-07-24T06:45:00.654Z,82.15
2018-07-24T06:46:00.530Z,82.15
2018-07-24T06:47:00.566Z,81.29
2018-07-24T06:48:00.491Z,80.32
2018-07-24T06:49:00.582Z,80.51
2018-07-24T06:50:00.464Z,80.22
2018-07-24T06:51:00.495Z,79.35
2018-07-24T06:52:00.487Z,79.54
2018-07-24T06:53:00.508Z,80.12
2018-07-24T06:54:00.397Z,79.54
2018-07-24T06:55:00.420Z,79.45
2018-07-24T06:56:00.342Z,79.35
2018-07-24T06:57:00.442Z,79.58
2018-07-24T06:58:00.309Z,79.00
2018-07-24T06:59:00.345Z,78.91
2018-07-24T07:00:00.273Z,79.49
2018-07-24T07:01:00.359Z,78.52
2018-07-24T07:02:00.241Z,78.52
2018-07-24T07:03:00.274Z,78.23
2018-07-24T07:04:00.202Z,77.55
2018-07-24T07:05:00.346Z,77.45
2018-07-24T07:06:00.168Z,77.75
2018-07-24T07:07:00.203Z,77.50
2018-07-24T07:08:00.133Z,77.69
2018-07-24T07:09:00.215Z,76.72
2018-07-24T07:10:00.091Z,76.91
2018-07-24T07:11:00.125Z,77.30
2018-07-24T07:12:00.062Z,77.11
2018-07-24T07:13:00.169Z,76.72
2018-07-24T07:14:00.022Z,76.08
2018-07-24T07:15:00.053Z,75.50
2018-07-24T07:15:59.989Z,75.79
2018-07-24T07:17:00.067Z,76.66
2018-07-24T07:17:59.954Z,76.76
2018-07-24T07:18:59.980Z,76.37
2018-07-24T07:19:59.916Z,76.66
2018-07-24T07:20:59.993Z,76.18
2018-07-24T07:21:59.883Z,77.37
2018-07-24T07:22:59.903Z,75.92
2018-07-24T07:23:59.849Z,74.96
2018-07-24T07:24:59.916Z,74.28
2018-07-24T07:25:59.815Z,74.38
2018-07-24T07:26:59.830Z,74.18
2018-07-24T07:27:59.780Z,75.44
2018-07-24T07:28:59.892Z,73.89
2018-07-24T07:29:59.748Z,72.53
2018-07-24T07:30:59.754Z,73.31
2018-07-24T07:31:59.709Z,74.08
2018-07-24T07:32:59.768Z,73.31
2018-07-24T07:33:59.677Z,72.86
2018-07-24T07:34:59.681Z,72.47
2018-07-24T07:35:59.646Z,72.96
2018-07-24T07:36:59.694Z,72.47
2018-07-24T07:37:59.607Z,72.77
2018-07-24T07:38:59.606Z,70.92
2018-07-24T07:39:59.571Z,71.02
2018-07-24T07:40:59.619Z,72.09
2018-07-24T07:41:59.539Z,71.89
2018-07-24T07:42:59.634Z,71.15
2018-07-24T07:43:59.587Z,71.12
2018-07-24T07:44:59.558Z,71.73
2018-07-24T07:45:59.472Z,72.51
2018-07-24T07:46:59.566Z,72.71
2018-07-24T07:47:59.440Z,72.02
2018-07-24T07:48:59.484Z,70.96
2018-07-24T07:49:59.405Z,71.73
2018-07-24T07:50:59.487Z,71.06
2018-07-24T07:51:59.370Z,71.06
2018-07-24T07:52:59.404Z,70.47
2018-07-24T07:53:59.335Z,71.25
2018-07-24T07:54:59.413Z,70.86
2018-07-24T07:55:59.303Z,71.58
2018-07-24T07:56:59.322Z,69.24
2018-07-24T07:57:59.271Z,70.31
2018-07-24T07:58:59.337Z,69.73
2018-07-24T07:59:59.240Z,69.54
2018-07-24T08:00:59.251Z,68.57
2018-07-24T08:01:59.209Z,68.79
2018-07-24T08:02:59.264Z,69.38
2018-07-24T08:03:59.183Z,69.76
2018-07-24T08:04:59.179Z,68.02
2018-07-24T08:05:59.139Z,67.83
2018-07-24T08:06:59.192Z,67.73
2018-07-24T08:07:59.104Z,68.60
2018-07-24T08:08:59.103Z,68.41
2018-07-24T08:09:59.074Z,68.51
2018-07-24T08:10:59.117Z,68.51
2018-07-24T08:11:59.039Z,68.41
2018-07-24T08:12:59.131Z,68.15
2018-07-24T08:13:59.015Z,68.05
2018-07-24T08:14:59.043Z,68.63
2018-07-24T08:15:58.978Z,68.15
2018-07-24T08:16:59.056Z,67.96
2018-07-24T08:17:58.946Z,67.86
2018-07-24T08:18:58.973Z,66.30
2018-07-24T08:19:58.911Z,67.60
2018-07-24T08:20:58.983Z,68.25
2018-07-24T08:21:58.882Z,69.45
2018-07-24T08:22:58.894Z,69.06
2018-07-24T08:23:58.850Z,68.57
2018-07-24T08:24:58.909Z,68.18
2018-07-24T08:25:58.819Z,67.99
2018-07-24T08:26:58.822Z,66.72
2018-07-24T08:27:58.833Z,68.41
2018-07-24T08:28:58.775Z,68.41
2018-07-24T08:29:58.753Z,67.05
2018-07-24T08:30:58.850Z,67.05
2018-07-24T08:31:58.733Z,66.27
2018-07-24T08:32:58.807Z,65.50
2018-07-24T08:33:58.768Z,66.50
2018-07-24T08:34:58.676Z,64.65
2018-07-24T08:35:58.680Z,63.49
2018-07-24T08:36:58.647Z,63.29
2018-07-24T08:37:58.694Z,63.97
2018-07-24T08:38:58.615Z,62.16
2018-07-24T08:39:58.709Z,61.18
2018-07-24T08:40:58.587Z,62.35
2018-07-24T08:41:59.718Z,61.18
2018-07-24T08:42:58.554Z,60.79
2018-07-24T08:43:58.635Z,60.14
2018-07-24T08:44:58.530Z,61.21
2018-07-24T08:45:58.547Z,60.92
2018-07-24T08:46:58.492Z,61.51
2018-07-24T08:47:58.630Z,61.83
2018-07-24T08:48:58.464Z,60.66
2018-07-24T08:49:58.472Z,58.91
2018-07-24T08:50:58.432Z,58.45
2018-07-24T08:51:58.486Z,56.30
2018-07-24T08:52:58.433Z,58.84
2018-07-24T08:53:58.622Z,57.40
2018-07-24T08:54:58.695Z,56.33
2018-07-24T08:55:58.415Z,57.82
2018-07-24T08:56:58.344Z,57.63
2018-07-24T08:57:58.429Z,56.77
2018-07-24T08:58:58.312Z,55.22
2018-07-24T08:59:58.339Z,54.73
2018-07-24T09:00:58.289Z,55.32
2018-07-24T09:01:58.352Z,54.46
2018-07-24T09:02:58.269Z,55.15
2018-07-24T09:03:58.267Z,56.51
2018-07-24T09:04:58.233Z,55.76
2018-07-24T09:05:58.280Z,56.54
2018-07-24T09:06:58.203Z,54.69
2018-07-24T09:07:58.293Z,52.37
2018-07-24T09:08:58.172Z,52.27
2018-07-24T09:09:58.206Z,50.42
2018-07-24T09:10:58.155Z,50.71
2018-07-24T09:11:58.219Z,50.51
2018-07-24T09:12:58.115Z,51.49
2018-07-24T09:13:58.136Z,51.12
2018-07-24T09:14:58.090Z,51.90
2018-07-24T09:15:58.146Z,50.17
2018-07-24T09:16:58.059Z,49.09
2018-07-24T09:17:58.055Z,49.87
2018-07-24T09:18:58.033Z,48.60
2018-07-24T09:19:58.072Z,48.33
2018-07-24T09:20:58.008Z,47.06
2018-07-24T09:21:58.086Z,48.33
2018-07-24T09:22:57.980Z,47.94
2018-07-24T09:23:57.997Z,47.85
2018-07-24T09:24:57.952Z,47.97
2018-07-24T09:25:58.017Z,50.12
2018-07-24T09:26:57.995Z,48.97
2018-07-24T09:27:57.947Z,47.79
2018-07-24T09:28:57.909Z,48.87
2018-07-24T09:29:57.937Z,48.68
2018-07-24T09:30:57.882Z,48.30
2018-07-24T09:31:57.980Z,47.25
2018-07-24T09:32:57.845Z,47.35
2018-07-24T09:33:57.864Z,45.12
2018-07-24T09:34:57.818Z,46.71
2018-07-24T09:35:57.884Z,46.22
2018-07-24T09:36:57.794Z,43.29
2018-07-24T09:37:57.892Z,41.02
2018-07-24T09:38:57.766Z,41.80
2018-07-24T09:39:57.804Z,42.61
2018-07-24T09:40:57.759Z,42.41
2018-07-24T09:41:57.819Z,41.35
2018-07-24T09:42:57.739Z,42.04
2018-07-24T09:43:57.732Z,40.27
2018-07-24T09:44:57.694Z,41.55
2018-07-24T09:45:57.760Z,42.85
2018-07-24T09:46:57.669Z,41.67
2018-07-24T09:47:57.765Z,40.08
2018-07-24T09:48:57.645Z,41.55
2018-07-24T09:49:57.673Z,40.47
2018-07-24T09:50:57.621Z,41.06
2018-07-24T09:51:57.685Z,39.68
2018-07-24T09:52:57.602Z,42.63
2018-07-24T09:53:57.703Z,41.56
2018-07-24T09:54:57.574Z,41.08
2018-07-24T09:55:57.614Z,41.37
2018-07-24T09:56:57.552Z,40.09
2018-07-24T09:57:57.626Z,41.56
2018-07-24T09:58:57.528Z,39.21
2018-07-24T09:59:57.537Z,39.01
2018-07-24T10:00:57.508Z,41.47
2018-07-24T10:01:57.551Z,41.69
2018-07-24T10:02:57.480Z,41.39
2018-07-24T10:03:57.567Z,41.49
2018-07-24T10:04:57.461Z,41.49
2018-07-24T10:05:57.484Z,39.15
2018-07-24T10:06:57.448Z,38.66
2018-07-24T10:07:57.502Z,40.72
2018-07-24T10:08:57.414Z,37.65
2018-07-24T10:09:57.505Z,38.44
2018-07-24T10:10:57.403Z,40.80
2018-07-24T10:11:57.419Z,40.90
2018-07-24T10:12:57.519Z,40.53
2018-07-24T10:13:57.423Z,40.92
2018-07-24T10:14:57.353Z,39.66
2018-07-24T10:15:57.446Z,39.09
2018-07-24T10:16:57.445Z,36.41
2018-07-24T10:17:57.357Z,36.30
2018-07-24T10:18:57.383Z,36.69
2018-07-24T10:19:57.392Z,39.84
2018-07-24T10:20:57.288Z,36.22
2018-07-24T10:21:57.386Z,35.23
2018-07-24T10:22:57.268Z,37.20
2018-07-24T10:23:57.303Z,39.17
2018-07-24T10:24:57.246Z,37.41
2018-07-24T10:25:57.315Z,35.86
2018-07-24T10:26:57.224Z,34.56
2018-07-24T10:27:57.328Z,35.74
2018-07-24T10:28:57.210Z,37.41
2018-07-24T10:29:57.240Z,36.92
2018-07-24T10:30:57.185Z,37.45
2018-07-24T10:31:57.257Z,36.86
2018-07-24T10:32:57.167Z,34.81
2018-07-24T10:33:57.269Z,36.88
2018-07-24T10:34:57.149Z,36.96
2018-07-24T10:35:57.185Z,37.17
2018-07-24T10:36:57.123Z,38.56
2018-07-24T10:37:57.193Z,37.07
2018-07-24T10:38:57.105Z,36.46
2018-07-24T10:39:57.217Z,39.12
2018-07-24T10:40:57.087Z,34.49
2018-07-24T10:41:57.122Z,36.98
2018-07-24T10:42:57.079Z,35.50
2018-07-24T10:43:57.135Z,35.50
2018-07-24T10:44:57.047Z,36.29
2018-07-24T10:45:57.142Z,37.68
2018-07-24T10:46:57.029Z,35.52
2018-07-24T10:47:57.061Z,35.91
2018-07-24T10:48:57.010Z,36.70
2018-07-24T10:49:57.076Z,35.81
2018-07-24T10:50:56.992Z,35.04
2018-07-24T10:51:57.089Z,34.15
2018-07-24T10:52:56.976Z,33.34
2018-07-24T10:53:57.004Z,35.53
2018-07-24T10:54:56.995Z,34.44
2018-07-24T10:55:57.015Z,34.94
2018-07-24T10:56:56.942Z,31.57
2018-07-24T10:57:57.034Z,32.35
2018-07-24T10:58:56.920Z,33.94
2018-07-24T10:59:56.943Z,32.85
2018-07-24T11:00:56.903Z,34.43
2018-07-24T11:01:56.958Z,34.43
2018-07-24T11:02:56.885Z,35.41
2018-07-24T11:03:56.973Z,34.25
2018-07-24T11:04:56.879Z,31.57
2018-07-24T11:05:56.882Z,35.41
2018-07-24T11:06:56.856Z,32.77
2018-07-24T11:07:56.905Z,33.16
2018-07-24T11:08:56.835Z,33.06
2018-07-24T11:09:56.913Z,33.18
2018-07-24T11:10:56.853Z,33.28
2018-07-24T11:11:56.912Z,33.47
2018-07-24T11:12:56.801Z,31.79
2018-07-24T11:13:56.840Z,31.70
2018-07-24T11:14:56.818Z,31.76
2018-07-24T11:15:56.837Z,31.37
2018-07-24T11:16:56.768Z,32.23
2018-07-24T11:17:56.867Z,32.62
2018-07-24T11:18:56.750Z,34.61
2018-07-24T11:19:56.779Z,34.72
2018-07-24T11:20:56.736Z,34.84
2018-07-24T11:21:56.800Z,32.98
2018-07-24T11:22:56.852Z,31.91
2018-07-24T11:23:57.322Z,33.20
2018-07-24T11:24:57.322Z,32.71
2018-07-24T11:25:56.725Z,33.29
2018-07-24T11:26:57.362Z,31.91
2018-07-24T11:27:56.730Z,31.90
2018-07-24T11:28:56.734Z,34.66
2018-07-24T11:29:56.654Z,34.08
2018-07-24T11:30:56.750Z,33.09
2018-07-24T11:31:56.649Z,31.81
2018-07-24T11:32:56.742Z,30.89
2018-07-24T11:33:56.632Z,32.95
2018-07-24T11:34:56.677Z,34.82
2018-07-24T11:35:56.782Z,34.15
2018-07-24T11:36:56.694Z,35.45
2018-07-24T11:37:56.600Z,34.27
2018-07-24T11:38:56.705Z,32.60
2018-07-24T11:39:56.584Z,33.39
2018-07-24T11:40:56.619Z,34.30
2018-07-24T11:41:56.571Z,33.31
2018-07-24T11:42:56.622Z,34.20
2018-07-24T11:43:56.614Z,34.30
2018-07-24T11:44:56.655Z,34.61
2018-07-24T11:45:56.541Z,32.64
2018-07-24T11:46:56.535Z,32.24
2018-07-24T11:47:56.526Z,33.01
2018-07-24T11:48:56.673Z,33.33
2018-07-24T11:49:56.510Z,34.63
2018-07-24T11:50:56.694Z,34.43
2018-07-24T11:51:56.603Z,29.58
2018-07-24T11:52:56.490Z,32.45
2018-07-24T11:53:56.485Z,32.55
2018-07-24T11:54:56.614Z,32.83
2018-07-24T11:55:56.469Z,30.54
2018-07-24T11:56:56.647Z,32.42
2018-07-24T11:57:56.455Z,32.71
2018-07-24T11:58:56.541Z,34.30
2018-07-24T11:59:56.439Z,32.92
2018-07-24T12:00:56.556Z,34.31
2018-07-24T12:01:56.426Z,33.04
2018-07-24T12:02:56.468Z,31.87
2018-07-24T12:03:56.413Z,33.16
2018-07-24T12:04:56.481Z,31.69
2018-07-24T12:05:56.402Z,31.99
2018-07-24T12:06:56.497Z,29.79
2018-07-24T12:07:56.500Z,29.09
2018-07-24T12:08:56.501Z,29.37
2018-07-24T12:09:56.377Z,29.83
2018-07-24T12:10:56.370Z,31.62
2018-07-24T12:11:56.429Z,31.22
2018-07-24T12:12:56.356Z,30.23
2018-07-24T12:13:56.436Z,30.73
2018-07-24T12:14:56.485Z,30.40
2018-07-24T12:15:56.347Z,31.47
2018-07-24T12:16:56.325Z,34.01
2018-07-24T12:17:56.372Z,35.10
2018-07-24T12:18:56.312Z,31.83
2018-07-24T12:19:56.381Z,32.62
2018-07-24T12:20:56.300Z,32.54
2018-07-24T12:21:56.396Z,34.63
2018-07-24T12:22:56.289Z,32.85
2018-07-24T12:23:56.309Z,31.67
2018-07-24T12:24:56.276Z,31.86
2018-07-24T12:25:56.324Z,32.47
2018-07-24T12:26:56.261Z,32.47
2018-07-24T12:27:56.336Z,32.87
2018-07-24T12:28:56.243Z,31.78
2018-07-24T12:29:56.352Z,33.06
2018-07-24T12:30:56.238Z,33.95
2018-07-24T12:31:56.266Z,33.58
2018-07-24T12:32:56.218Z,32.39
2018-07-24T12:33:56.292Z,32.50
2018-07-24T12:34:56.203Z,34.28
2018-07-24T12:35:56.368Z,34.00
2018-07-24T12:36:56.190Z,34.31
2018-07-24T12:37:56.185Z,32.95
2018-07-24T12:38:56.314Z,29.97
2018-07-24T12:39:56.174Z,29.48
2018-07-24T12:40:56.179Z,29.68
2018-07-24T12:41:56.231Z,28.08
2018-07-24T12:42:56.149Z,28.37
2018-07-24T12:43:56.246Z,29.83
2018-07-24T12:44:56.145Z,29.92
2018-07-24T12:45:56.261Z,31.59
2018-07-24T12:46:56.149Z,30.89
2018-07-24T12:47:56.275Z,31.86
2018-07-24T12:48:56.115Z,32.67
2018-07-24T12:49:56.187Z,31.78
2018-07-24T12:50:56.087Z,32.07
2018-07-24T12:51:56.202Z,30.48